Time;durP1;ratioP1;P1;durP2;ratioP2;P2;SDS_P1;SDS_P2;PMS_P1;PMS_P2;Temp;Humidity;BMP_temperature;BMP_pressure;BME280_temperature;BME280_humidity;BME280_pressure;Samples;Min_cycle;Max_cycle;Signal;HPM_P1;HPM_P2
2021/12/03 00:20:17;;;;;;;2.17;1.90;;;;;;;;;;4122981;34;20114;-63
2021/12/03 00:22:44;;;;;;;2.33;2.05;;;;;;;;;;4123617;34;20564;-63
2021/12/03 00:25:10;;;;;;;3.28;2.40;;;;;;;;;;4123528;34;20131;-73
2021/12/03 00:27:37;;;;;;;2.67;1.80;;;;;;;;;;4111368;34;20104;-63
2021/12/03 00:30:05;;;;;;;3.08;2.00;;;;;;;;;;4123412;34;20130;-64
2021/12/03 00:32:31;;;;;;;1.80;1.70;;;;;;;;;;4100040;34;20508;-64
2021/12/03 00:34:57;;;;;;;2.45;2.10;;;;;;;;;;4123311;34;20232;-63
2021/12/03 00:37:23;;;;;;;3.83;2.22;;;;;;;;;;4122152;34;20122;-63
2021/12/03 00:39:50;;;;;;;2.42;2.00;;;;;;;;;;4123253;34;20596;-64
2021/12/03 00:42:17;;;;;;;2.62;1.83;;;;;;;;;;4123375;34;20626;-64
2021/12/03 00:44:50;;;;;;;2.72;2.05;;;;;;;;;;4123186;34;20516;-64
2021/12/03 00:47:16;;;;;;;2.00;1.90;;;;;;;;;;4123386;34;20227;-64
2021/12/03 00:49:42;;;;;;;2.10;1.90;;;;;;;;;;4123234;34;20115;-64
2021/12/03 00:52:09;;;;;;;2.22;1.90;;;;;;;;;;4123259;34;20488;-64
2021/12/03 00:54:35;;;;;;;2.22;1.90;;;;;;;;;;4123142;34;20140;-64
2021/12/03 00:57:01;;;;;;;2.20;2.00;;;;;;;;;;4123419;34;20115;-64
2021/12/03 00:59:27;;;;;;;2.00;1.90;;;;;;;;;;4123119;34;20193;-64
2021/12/03 01:01:53;;;;;;;2.25;2.05;;;;;;;;;;4123222;34;20139;-64
2021/12/03 01:04:19;;;;;;;2.55;1.90;;;;;;;;;;4123103;34;20134;-63
2021/12/03 01:06:46;;;;;;;2.65;2.33;;;;;;;;;;4123223;34;20221;-64
2021/12/03 01:09:12;;;;;;;2.92;2.15;;;;;;;;;;4122922;34;20119;-64
2021/12/03 01:11:38;;;;;;;3.45;2.00;;;;;;;;;;4123115;34;20123;-64
2021/12/03 01:14:04;;;;;;;2.92;2.40;;;;;;;;;;4123386;34;20119;-64
2021/12/03 01:16:31;;;;;;;4.07;2.37;;;;;;;;;;4123085;34;20108;-64
2021/12/03 01:18:58;;;;;;;2.95;2.33;;;;;;;;;;4123073;34;20131;-73
2021/12/03 01:21:24;;;;;;;3.05;2.33;;;;;;;;;;4121842;34;20614;-72
2021/12/03 01:23:51;;;;;;;2.30;2.10;;;;;;;;;;4121485;34;20139;-73
2021/12/03 01:26:18;;;;;;;2.37;2.00;;;;;;;;;;4110616;34;20115;-73
2021/12/03 01:28:45;;;;;;;2.83;2.47;;;;;;;;;;4110568;34;20111;-72
2021/12/03 01:31:12;;;;;;;3.10;2.50;;;;;;;;;;4123009;34;20445;-73
2021/12/03 01:33:38;;;;;;;3.42;2.25;;;;;;;;;;4110626;34;20100;-73
2021/12/03 01:36:05;;;;;;;3.15;2.20;;;;;;;;;;4121546;34;20193;-73
2021/12/03 01:38:31;;;;;;;2.60;2.30;;;;;;;;;;4110448;34;20104;-73
2021/12/03 01:40:57;;;;;;;2.95;2.50;;;;;;;;;;4110207;34;20124;-73
2021/12/03 01:43:25;;;;;;;2.97;2.67;;;;;;;;;;4122913;34;20096;-73
2021/12/03 01:46:03;;;;;;;2.97;2.30;;;;;;;;;;4122750;34;20100;-73
2021/12/03 01:48:29;;;;;;;3.17;2.87;;;;;;;;;;4110509;34;20534;-73
2021/12/03 01:50:56;;;;;;;3.90;2.42;;;;;;;;;;4122735;34;20198;-73
2021/12/03 01:53:25;;;;;;;5.12;2.78;;;;;;;;;;4110666;34;20441;-73
2021/12/03 01:55:52;;;;;;;3.28;2.67;;;;;;;;;;4110074;34;20127;-72
2021/12/03 01:58:18;;;;;;;3.53;2.60;;;;;;;;;;4110361;34;20201;-73
2021/12/03 02:00:56;;;;;;;3.15;2.85;;;;;;;;;;4110283;34;20115;-73
2021/12/03 02:03:27;;;;;;;3.15;2.55;;;;;;;;;;4108191;34;20100;-74
2021/12/03 02:05:53;;;;;;;3.10;2.47;;;;;;;;;;4119934;34;20128;-73
2021/12/03 02:08:20;;;;;;;2.60;2.40;;;;;;;;;;4110223;34;20139;-73
2021/12/03 02:10:46;;;;;;;4.65;2.62;;;;;;;;;;4121300;34;20563;-73
2021/12/03 02:13:13;;;;;;;2.85;2.55;;;;;;;;;;4110224;34;20225;-73
2021/12/03 02:15:40;;;;;;;4.78;2.42;;;;;;;;;;4109979;34;20542;-73
2021/12/03 02:18:08;;;;;;;3.22;2.90;;;;;;;;;;4099182;34;20108;-73
2021/12/03 02:20:34;;;;;;;3.45;3.15;;;;;;;;;;4110253;34;20108;-73
2021/12/03 02:23:00;;;;;;;4.10;3.10;;;;;;;;;;4110182;34;20108;-73
2021/12/03 02:25:27;;;;;;;3.10;2.67;;;;;;;;;;4122377;34;20315;-73
2021/12/03 02:27:55;;;;;;;4.07;3.00;;;;;;;;;;4110094;34;20198;-73
2021/12/03 02:30:22;;;;;;;6.18;2.92;;;;;;;;;;4122328;34;20634;-73
2021/12/03 02:32:50;;;;;;;5.45;3.08;;;;;;;;;;4110163;34;20112;-73
2021/12/03 02:35:18;;;;;;;4.20;3.40;;;;;;;;;;4122089;34;20198;-73
2021/12/03 02:37:44;;;;;;;6.60;3.30;;;;;;;;;;4109935;34;20200;-73
2021/12/03 02:40:10;;;;;;;4.57;3.58;;;;;;;;;;4120796;34;20128;-73
2021/12/03 02:42:36;;;;;;;5.47;3.33;;;;;;;;;;4109996;34;20128;-73
2021/12/03 02:45:04;;;;;;;5.85;3.37;;;;;;;;;;4109839;34;20115;-74
2021/12/03 02:47:30;;;;;;;4.85;4.18;;;;;;;;;;4120744;34;20127;-74
2021/12/03 02:49:56;;;;;;;6.15;3.92;;;;;;;;;;4121931;34;20120;-73
2021/12/03 02:52:22;;;;;;;5.20;4.00;;;;;;;;;;4109982;34;20122;-73
2021/12/03 02:54:48;;;;;;;8.95;4.78;;;;;;;;;;4124020;34;20575;-74
2021/12/03 02:57:15;;;;;;;5.40;4.85;;;;;;;;;;4124101;34;20753;-74
2021/12/03 02:59:41;;;;;;;6.57;4.95;;;;;;;;;;4111557;34;20201;-73
2021/12/03 03:02:07;;;;;;;5.53;4.80;;;;;;;;;;4124240;34;20135;-74
2021/12/03 03:04:33;;;;;;;5.82;4.95;;;;;;;;;;4111673;34;20128;-74
2021/12/03 03:07:00;;;;;;;6.60;5.18;;;;;;;;;;4124182;34;20118;-75
2021/12/03 03:09:26;;;;;;;5.55;4.90;;;;;;;;;;4124359;34;20132;-73
2021/12/03 03:11:53;;;;;;;8.63;5.70;;;;;;;;;;4122610;34;20535;-74
2021/12/03 03:14:19;;;;;;;7.30;5.35;;;;;;;;;;4122445;34;20100;-73
2021/12/03 03:16:46;;;;;;;6.22;5.25;;;;;;;;;;4111716;34;20138;-73
2021/12/03 03:19:16;;;;;;;9.07;6.20;;;;;;;;;;4124022;34;20222;-79
2021/12/03 03:21:43;;;;;;;7.53;5.93;;;;;;;;;;4111316;34;20143;-74
2021/12/03 03:24:09;;;;;;;9.18;6.32;;;;;;;;;;4123977;34;20492;-74
2021/12/03 03:26:37;;;;;;;7.25;5.53;;;;;;;;;;4123268;34;20112;-71
2021/12/03 03:29:05;;;;;;;7.28;5.93;;;;;;;;;;4121469;34;20557;-74
2021/12/03 03:31:32;;;;;;;7.80;5.72;;;;;;;;;;4123133;34;20132;-72
2021/12/03 03:33:58;;;;;;;7.22;5.78;;;;;;;;;;4118224;34;20193;-72
2021/12/03 03:36:25;;;;;;;6.95;5.60;;;;;;;;;;4123737;34;20115;-68
2021/12/03 03:38:51;;;;;;;8.15;6.10;;;;;;;;;;4118369;34;20101;-65
2021/12/03 03:41:17;;;;;;;6.93;6.22;;;;;;;;;;4123741;34;20217;-65
2021/12/03 03:43:43;;;;;;;6.32;5.72;;;;;;;;;;4122309;34;20513;-64
2021/12/03 03:46:09;;;;;;;7.55;5.85;;;;;;;;;;4123695;34;20122;-65
2021/12/03 03:48:35;;;;;;;8.55;6.50;;;;;;;;;;4122248;34;20104;-65
2021/12/03 03:51:01;;;;;;;6.28;5.68;;;;;;;;;;4123711;34;20507;-65
2021/12/03 03:53:27;;;;;;;5.87;5.28;;;;;;;;;;4118065;34;20229;-65
2021/12/03 03:55:53;;;;;;;6.68;5.65;;;;;;;;;;4123487;34;20111;-65
2021/12/03 03:58:19;;;;;;;6.07;5.47;;;;;;;;;;4122329;34;20119;-65
2021/12/03 04:00:46;;;;;;;6.70;5.43;;;;;;;;;;4123517;34;20130;-65
2021/12/03 04:03:14;;;;;;;7.35;5.93;;;;;;;;;;4117717;34;20230;-65
2021/12/03 04:05:40;;;;;;;7.00;5.30;;;;;;;;;;4123477;34;20110;-64
2021/12/03 04:08:07;;;;;;;5.47;4.93;;;;;;;;;;4122308;34;20092;-65
2021/12/03 04:10:33;;;;;;;6.15;5.40;;;;;;;;;;4123474;34;20084;-64
2021/12/03 04:13:00;;;;;;;6.32;5.62;;;;;;;;;;4123463;34;20142;-66
2021/12/03 04:15:26;;;;;;;6.30;5.47;;;;;;;;;;4136754;34;20212;-65
2021/12/03 04:17:52;;;;;;;6.57;5.50;;;;;;;;;;4130649;34;20130;-64
2021/12/03 04:20:19;;;;;;;5.90;5.28;;;;;;;;;;4123138;34;20150;-66
2021/12/03 04:22:46;;;;;;;6.53;5.05;;;;;;;;;;4118576;34;20099;-64
2021/12/03 04:25:15;;;;;;;5.82;5.22;;;;;;;;;;4122158;34;20144;-62
2021/12/03 04:27:41;;;;;;;5.75;5.15;;;;;;;;;;4110309;34;20539;-63
2021/12/03 04:30:13;;;;;;;6.12;5.05;;;;;;;;;;4122654;34;20088;-63
2021/12/03 04:32:39;;;;;;;5.70;5.05;;;;;;;;;;4119488;34;20307;-63
2021/12/03 04:35:06;;;;;;;6.40;5.35;;;;;;;;;;4121495;34;20198;-62
2021/12/03 04:37:33;;;;;;;8.60;5.68;;;;;;;;;;4110505;34;20119;-64
2021/12/03 04:39:59;;;;;;;5.53;4.32;;;;;;;;;;4121054;34;20111;-63
2021/12/03 04:42:25;;;;;;;7.12;4.90;;;;;;;;;;4121482;34;20179;-63
2021/12/03 04:44:51;;;;;;;6.07;5.45;;;;;;;;;;4122797;34;20100;-63
2021/12/03 04:47:17;;;;;;;5.82;5.22;;;;;;;;;;4122796;34;20154;-63
2021/12/03 04:49:43;;;;;;;6.10;5.35;;;;;;;;;;4121193;34;20540;-64
2021/12/03 04:52:09;;;;;;;5.35;4.85;;;;;;;;;;4122308;34;20536;-64
2021/12/03 04:54:35;;;;;;;6.10;5.12;;;;;;;;;;4120446;34;20119;-64
2021/12/03 04:57:01;;;;;;;5.65;5.05;;;;;;;;;;4122823;34;20127;-63
2021/12/03 04:59:27;;;;;;;5.53;4.90;;;;;;;;;;4122282;34;20461;-63
2021/12/03 05:01:56;;;;;;;7.07;5.18;;;;;;;;;;4122894;34;20481;-69
2021/12/03 05:04:22;;;;;;;6.97;5.35;;;;;;;;;;4117124;34;20103;-64
2021/12/03 05:09:33;;;;;;;6.03;5.43;;;;;;;;;;4122269;34;20210;-68
2021/12/03 05:11:59;;;;;;;5.78;5.18;;;;;;;;;;4122283;34;20096;-67
2021/12/03 05:14:26;;;;;;;5.70;5.20;;;;;;;;;;4121981;34;20214;-69
2021/12/03 05:16:52;;;;;;;5.43;4.93;;;;;;;;;;4120853;34;20533;-69
2021/12/03 05:19:18;;;;;;;5.87;5.20;;;;;;;;;;4122350;34;20139;-69
2021/12/03 05:21:44;;;;;;;6.00;5.00;;;;;;;;;;4122603;34;20123;-69
2021/12/03 05:24:12;;;;;;;5.95;5.35;;;;;;;;;;4121187;34;20237;-68
2021/12/03 05:26:39;;;;;;;6.93;4.97;;;;;;;;;;4122647;34;20682;-69
2021/12/03 05:29:06;;;;;;;5.65;5.12;;;;;;;;;;4120638;34;20138;-69
2021/12/03 05:31:33;;;;;;;6.07;5.37;;;;;;;;;;4122473;34;20091;-69
2021/12/03 05:33:59;;;;;;;5.65;5.12;;;;;;;;;;4122366;34;20116;-69
2021/12/03 05:36:25;;;;;;;5.65;5.15;;;;;;;;;;4122655;34;20501;-69
2021/12/03 05:38:52;;;;;;;5.75;5.15;;;;;;;;;;4122696;34;20631;-68
2021/12/03 05:41:18;;;;;;;5.50;4.97;;;;;;;;;;4122280;34;20123;-68
2021/12/03 05:43:44;;;;;;;4.55;4.15;;;;;;;;;;4122115;34;20229;-68
2021/12/03 05:46:10;;;;;;;6.10;5.50;;;;;;;;;;4122568;34;20122;-68
2021/12/03 05:48:36;;;;;;;5.85;5.22;;;;;;;;;;4122391;34;20529;-69
2021/12/03 05:51:02;;;;;;;6.07;4.70;;;;;;;;;;4121007;34;20213;-69
2021/12/03 05:53:28;;;;;;;5.90;4.68;;;;;;;;;;4119757;34;20225;-69
2021/12/03 05:55:55;;;;;;;4.60;4.20;;;;;;;;;;4122436;34;20540;-69
2021/12/03 05:58:21;;;;;;;5.12;4.68;;;;;;;;;;4109932;34;20532;-69
2021/12/03 06:00:48;;;;;;;5.30;4.80;;;;;;;;;;4122295;34;20548;-69
2021/12/03 06:03:14;;;;;;;5.25;4.65;;;;;;;;;;4122314;34;20128;-69
2021/12/03 06:05:40;;;;;;;5.15;4.65;;;;;;;;;;4122382;34;20454;-68
2021/12/03 06:08:07;;;;;;;5.75;4.95;;;;;;;;;;4122073;34;20100;-68
2021/12/03 06:10:34;;;;;;;5.18;4.68;;;;;;;;;;4120850;34;20535;-69
2021/12/03 06:13:00;;;;;;;5.53;4.82;;;;;;;;;;4122023;34;20213;-69
2021/12/03 06:15:26;;;;;;;5.65;4.47;;;;;;;;;;4120749;34;20563;-69
2021/12/03 06:17:52;;;;;;;5.28;4.78;;;;;;;;;;4121547;34;20221;-69
2021/12/03 06:20:19;;;;;;;5.05;4.55;;;;;;;;;;4122394;34;20103;-69
2021/12/03 06:22:46;;;;;;;4.75;4.25;;;;;;;;;;4117831;34;20092;-69
2021/12/03 06:25:12;;;;;;;6.10;4.70;;;;;;;;;;4121174;34;20525;-69
2021/12/03 06:27:39;;;;;;;6.32;5.03;;;;;;;;;;4123516;34;20230;-69
2021/12/03 06:30:11;;;;;;;5.47;4.97;;;;;;;;;;4124174;34;20225;-68
2021/12/03 06:32:37;;;;;;;5.25;4.75;;;;;;;;;;4111804;34;20112;-69
2021/12/03 06:35:05;;;;;;;5.25;4.75;;;;;;;;;;4111437;34;20210;-69
2021/12/03 06:37:31;;;;;;;5.43;4.93;;;;;;;;;;4124029;34;20478;-69
2021/12/03 06:39:57;;;;;;;5.25;4.75;;;;;;;;;;4122835;34;20129;-69
2021/12/03 06:42:23;;;;;;;5.47;4.37;;;;;;;;;;4121180;34;20128;-69
2021/12/03 06:44:49;;;;;;;5.43;4.87;;;;;;;;;;4121076;34;20130;-69
2021/12/03 06:47:15;;;;;;;5.70;5.20;;;;;;;;;;4122343;34;20145;-69
2021/12/03 06:49:41;;;;;;;5.28;4.78;;;;;;;;;;4126522;34;20095;-69
2021/12/03 06:52:11;;;;;;;6.82;5.10;;;;;;;;;;4122598;34;20103;-69
2021/12/03 06:54:37;;;;;;;5.03;4.53;;;;;;;;;;4119451;34;20107;-68
2021/12/03 06:57:06;;;;;;;6.00;5.40;;;;;;;;;;4123510;34;20513;-69
2021/12/03 06:59:33;;;;;;;11.30;5.07;;;;;;;;;;4119245;34;20124;-70
2021/12/03 07:01:59;;;;;;;6.50;5.80;;;;;;;;;;4122474;34;20139;-69
2021/12/03 07:04:30;;;;;;;5.18;4.68;;;;;;;;;;4118764;34;20115;-69
2021/12/03 07:06:56;;;;;;;7.35;6.05;;;;;;;;;;4124337;34;20108;-69
2021/12/03 07:09:22;;;;;;;5.37;4.87;;;;;;;;;;4123430;34;20096;-69
2021/12/03 07:11:48;;;;;;;5.60;4.90;;;;;;;;;;4121489;34;20119;-69
2021/12/03 07:14:14;;;;;;;6.35;5.62;;;;;;;;;;4117864;34;20123;-69
2021/12/03 07:16:40;;;;;;;5.95;5.35;;;;;;;;;;4123874;34;20134;-69
2021/12/03 07:19:06;;;;;;;5.35;4.85;;;;;;;;;;4123451;34;20111;-69
2021/12/03 07:21:32;;;;;;;8.80;5.75;;;;;;;;;;4123443;34;20123;-69
2021/12/03 07:23:58;;;;;;;7.93;6.10;;;;;;;;;;4123451;34;20217;-70
2021/12/03 07:26:25;;;;;;;9.70;8.02;;;;;;;;;;4122377;34;20524;-69
2021/12/03 07:28:52;;;;;;;6.32;5.60;;;;;;;;;;4123313;34;20191;-69
2021/12/03 07:31:18;;;;;;;6.30;5.20;;;;;;;;;;4123812;34;20205;-69
2021/12/03 07:33:45;;;;;;;7.37;5.15;;;;;;;;;;4122054;34;20111;-69
2021/12/03 07:36:11;;;;;;;5.93;5.32;;;;;;;;;;4123825;34;20146;-70
2021/12/03 07:38:37;;;;;;;6.05;5.45;;;;;;;;;;4117501;34;20206;-70
2021/12/03 07:41:04;;;;;;;6.68;4.75;;;;;;;;;;4122338;34;20126;-67
2021/12/03 07:43:30;;;;;;;7.03;5.57;;;;;;;;;;4123158;34;20630;-68
2021/12/03 07:45:56;;;;;;;6.37;5.78;;;;;;;;;;4122351;34;20440;-68
2021/12/03 07:48:23;;;;;;;6.20;5.60;;;;;;;;;;4123424;34;20114;-69
2021/12/03 07:50:51;;;;;;;6.15;5.55;;;;;;;;;;4123741;34;20126;-70
2021/12/03 07:53:18;;;;;;;6.43;5.68;;;;;;;;;;4116634;34;20127;-68
2021/12/03 07:55:45;;;;;;;7.50;6.70;;;;;;;;;;4111236;34;20120;-69
2021/12/03 07:58:11;;;;;;;5.90;5.32;;;;;;;;;;4117574;34;20114;-69
2021/12/03 08:00:37;;;;;;;6.43;5.82;;;;;;;;;;4123438;34;20205;-69
2021/12/03 08:03:04;;;;;;;6.65;5.37;;;;;;;;;;4117562;34;20104;-69
2021/12/03 08:05:30;;;;;;;6.40;5.80;;;;;;;;;;4123610;34;20108;-69
2021/12/03 08:07:59;;;;;;;6.47;5.62;;;;;;;;;;4121753;34;20095;-78
2021/12/03 08:10:25;;;;;;;7.32;6.60;;;;;;;;;;4123363;34;20445;-70
2021/12/03 08:12:51;;;;;;;7.78;6.97;;;;;;;;;;4122814;34;20219;-70
2021/12/03 08:15:17;;;;;;;6.20;5.60;;;;;;;;;;4123214;34;20116;-70
2021/12/03 08:17:48;;;;;;;5.95;5.20;;;;;;;;;;4121444;34;20127;-68
2021/12/03 08:20:15;;;;;;;7.03;5.65;;;;;;;;;;4122174;34;20460;-69
2021/12/03 08:22:42;;;;;;;8.07;5.60;;;;;;;;;;4122870;34;20526;-68
2021/12/03 08:25:09;;;;;;;6.62;6.03;;;;;;;;;;4122857;34;20477;-69
2021/12/03 08:27:36;;;;;;;7.28;6.15;;;;;;;;;;4122887;34;20147;-69
2021/12/03 08:30:04;;;;;;;6.72;6.12;;;;;;;;;;4123178;34;20277;-70
2021/12/03 08:32:30;;;;;;;7.53;6.37;;;;;;;;;;4122797;34;20108;-68
2021/12/03 08:34:57;;;;;;;7.62;6.43;;;;;;;;;;4123062;34;20139;-68
2021/12/03 08:37:23;;;;;;;7.37;6.03;;;;;;;;;;4120545;34;20123;-68
2021/12/03 08:39:49;;;;;;;6.95;6.30;;;;;;;;;;4120072;34;20131;-69
2021/12/03 08:42:17;;;;;;;9.13;6.50;;;;;;;;;;4122996;34;20241;-68
2021/12/03 08:44:43;;;;;;;7.43;6.70;;;;;;;;;;4122497;34;20202;-67
2021/12/03 08:47:09;;;;;;;8.48;6.47;;;;;;;;;;4123242;34;20123;-67
2021/12/03 08:49:39;;;;;;;7.25;5.87;;;;;;;;;;4122098;34;20100;-68
2021/12/03 08:52:23;;;;;;;9.77;6.70;;;;;;;;;;4120037;34;20124;-69
2021/12/03 08:54:56;;;;;;;7.30;6.60;;;;;;;;;;4119367;34;20570;-67
2021/12/03 08:57:23;;;;;;;8.32;7.07;;;;;;;;;;4122752;34;20100;-67
2021/12/03 08:59:51;;;;;;;7.72;6.97;;;;;;;;;;4110318;34;20222;-67
2021/12/03 09:02:18;;;;;;;9.48;7.47;;;;;;;;;;4122874;34;20468;-68
2021/12/03 09:04:44;;;;;;;7.57;6.87;;;;;;;;;;4122191;34;20516;-67
2021/12/03 09:07:10;;;;;;;8.48;6.80;;;;;;;;;;4122658;34;20207;-67
2021/12/03 09:09:37;;;;;;;8.23;6.43;;;;;;;;;;4122359;34;20210;-75
2021/12/03 09:12:03;;;;;;;8.77;6.62;;;;;;;;;;4121102;34;20525;-75
2021/12/03 09:14:51;;;;;;;10.30;7.47;;;;;;;;;;4120713;34;20458;-75
2021/12/03 09:20:26;;;;;;;9.23;8.25;;;;;;;;;;4122330;34;20535;-64
2021/12/03 09:22:57;;;;;;;11.45;8.63;;;;;;;;;;4121797;34;20207;-64
2021/12/03 09:25:31;;;;;;;11.65;8.35;;;;;;;;;;4120520;34;20107;-63
2021/12/03 09:27:59;;;;;;;9.48;8.48;;;;;;;;;;4116276;34;20608;-63
2021/12/03 09:30:25;;;;;;;9.52;8.30;;;;;;;;;;4119380;34;20138;-63
2021/12/03 09:32:57;;;;;;;9.18;7.12;;;;;;;;;;4117129;34;20190;-64
2021/12/03 09:35:24;;;;;;;9.25;8.23;;;;;;;;;;4114901;34;20118;-63
2021/12/03 09:37:50;;;;;;;10.27;7.57;;;;;;;;;;4121777;34;20213;-64
2021/12/03 09:40:21;;;;;;;11.93;9.00;;;;;;;;;;4121996;34;20206;-65
2021/12/03 09:42:47;;;;;;;10.50;8.32;;;;;;;;;;4109248;34;20865;-66
2021/12/03 09:45:14;;;;;;;12.52;9.60;;;;;;;;;;4121780;34;20131;-67
2021/12/03 09:47:40;;;;;;;11.27;9.40;;;;;;;;;;4120684;34;20119;-65
2021/12/03 09:50:12;;;;;;;14.57;9.82;;;;;;;;;;4121082;34;20126;-66
2021/12/03 09:55:25;;;;;;;11.98;9.20;;;;;;;;;;4105542;34;20116;-66
2021/12/03 10:01:09;;;;;;;13.05;10.43;;;;;;;;;;4120852;34;20545;-69
2021/12/03 10:16:55;;;;;;;11.38;9.18;;;;;;;;;;4122740;34;20139;-70
2021/12/03 10:19:36;;;;;;;13.30;10.27;;;;;;;;;;4116183;34;20100;-71
2021/12/03 10:33:03;;;;;;;11.65;9.23;;;;;;;;;;4118033;34;19995;-70
2021/12/03 10:43:18;;;;;;;10.77;8.15;;;;;;;;;;4118060;34;20120;-72
2021/12/03 11:02:24;;;;;;;10.77;8.75;;;;;;;;;;4123733;34;20100;-71
2021/12/03 11:27:40;;;;;;;10.77;8.32;;;;;;;;;;4137113;34;20103;-70
2021/12/03 11:30:11;;;;;;;9.80;8.40;;;;;;;;;;4136059;34;20499;-70
2021/12/03 11:36:39;;;;;;;10.93;8.60;;;;;;;;;;4135928;34;20194;-74
2021/12/03 11:47:05;;;;;;;12.45;8.93;;;;;;;;;;4112569;34;20124;-66
2021/12/03 12:41:08;;;;;;;11.05;9.82;;;;;;;;;;4123530;34;20549;-65
2021/12/03 14:41:40;;;;;;;9.80;7.57;;;;;;;;;;4122336;34;20200;-69
2021/12/03 14:54:29;;;;;;;10.65;8.60;;;;;;;;;;4124123;34;20104;-69
2021/12/03 14:57:54;;;;;;;10.32;8.77;;;;;;;;;;4112955;34;20504;-66
2021/12/03 15:00:34;;;;;;;11.52;9.35;;;;;;;;;;4115157;34;20203;-67
2021/12/03 15:03:09;;;;;;;9.05;7.82;;;;;;;;;;4137173;34;20520;-66
2021/12/03 15:08:21;;;;;;;10.48;7.78;;;;;;;;;;4124172;34;19983;-67
2021/12/03 15:19:02;;;;;;;9.18;7.45;;;;;;;;;;4123409;34;20112;-66
2021/12/03 15:37:22;;;;;;;10.95;8.70;;;;;;;;;;4123755;34;20569;-67
2021/12/03 16:04:23;;;;;;;9.57;8.45;;;;;;;;;;4122590;34;20127;-66
2021/12/03 16:12:24;;;;;;;9.57;8.52;;;;;;;;;;4123473;34;20233;-66
2021/12/03 16:22:39;;;;;;;10.30;9.02;;;;;;;;;;4122311;34;20135;-73
2021/12/03 16:47:35;;;;;;;10.70;8.68;;;;;;;;;;4094350;35;20104;-65
2021/12/03 16:52:41;;;;;;;11.73;8.77;;;;;;;;;;4111827;34;20124;-65
2021/12/03 16:55:07;;;;;;;9.52;8.13;;;;;;;;;;4110756;34;20119;-66
2021/12/03 16:57:35;;;;;;;9.85;8.32;;;;;;;;;;4123175;34;20127;-65
2021/12/03 17:00:16;;;;;;;10.23;8.13;;;;;;;;;;4123219;34;20509;-64
2021/12/03 17:02:49;;;;;;;10.27;9.23;;;;;;;;;;4123150;34;20127;-69
2021/12/03 17:48:54;;;;;;;11.75;10.48;;;;;;;;;;4067879;35;20562;-64
2021/12/03 17:51:43;;;;;;;13.80;9.95;;;;;;;;;;4067774;35;20523;-64
2021/12/03 17:56:53;;;;;;;12.23;9.45;;;;;;;;;;4122515;34;20111;-64
2021/12/03 17:59:53;;;;;;;13.48;11.12;;;;;;;;;;4110234;34;20529;-63
2021/12/03 18:03:03;;;;;;;13.82;11.00;;;;;;;;;;4118590;34;20111;-63
2021/12/03 18:08:09;;;;;;;13.62;9.90;;;;;;;;;;4122684;34;20108;-66
2021/12/03 18:18:26;;;;;;;10.65;9.55;;;;;;;;;;4121118;34;20430;-67
2021/12/03 18:55:55;;;;;;;11.97;9.43;;;;;;;;;;4124196;34;20633;-69
2021/12/03 18:58:25;;;;;;;11.30;8.50;;;;;;;;;;4124629;34;20214;-70
2021/12/03 19:00:52;;;;;;;10.57;9.00;;;;;;;;;;4126288;34;20099;-70
2021/12/03 19:08:38;;;;;;;9.05;8.10;;;;;;;;;;4123952;34;20111;-70
2021/12/03 19:11:07;;;;;;;9.93;8.15;;;;;;;;;;4124014;34;20136;-69
2021/12/03 19:13:38;;;;;;;9.40;8.25;;;;;;;;;;4124007;34;20123;-68
2021/12/03 19:16:07;;;;;;;9.95;8.30;;;;;;;;;;4124004;34;20453;-68
2021/12/03 19:18:34;;;;;;;12.37;9.13;;;;;;;;;;4100992;34;20151;-68
2021/12/03 19:21:06;;;;;;;9.93;7.57;;;;;;;;;;4111772;34;20123;-68
2021/12/03 19:23:33;;;;;;;9.52;6.87;;;;;;;;;;4118554;34;20122;-69
2021/12/03 19:25:59;;;;;;;8.52;7.55;;;;;;;;;;4124171;34;20100;-69
2021/12/03 19:28:25;;;;;;;9.15;8.00;;;;;;;;;;4118490;34;20115;-69
2021/12/03 19:30:55;;;;;;;10.02;7.80;;;;;;;;;;4123884;34;20123;-70
2021/12/03 19:33:21;;;;;;;9.05;6.80;;;;;;;;;;4118296;34;20135;-71
2021/12/03 19:35:47;;;;;;;9.13;7.30;;;;;;;;;;4123295;34;20119;-70
2021/12/03 19:38:16;;;;;;;11.05;7.37;;;;;;;;;;4122403;34;20216;-70
2021/12/03 19:40:51;;;;;;;10.07;7.55;;;;;;;;;;4122582;34;20123;-70
2021/12/03 19:43:19;;;;;;;7.67;6.60;;;;;;;;;;4123711;34;20100;-70
2021/12/03 19:45:52;;;;;;;8.63;6.30;;;;;;;;;;4123721;34;20195;-70
2021/12/03 19:48:18;;;;;;;7.12;5.78;;;;;;;;;;4123722;34;20123;-70
2021/12/03 19:50:46;;;;;;;10.52;6.60;;;;;;;;;;4111309;34;20128;-70
2021/12/03 19:53:26;;;;;;;8.70;6.37;;;;;;;;;;4123464;34;20124;-70
2021/12/03 19:55:52;;;;;;;6.93;5.45;;;;;;;;;;4123681;34;20111;-70
2021/12/03 19:58:20;;;;;;;8.02;5.95;;;;;;;;;;4111272;34;20108;-70
2021/12/03 20:00:47;;;;;;;9.55;6.70;;;;;;;;;;4111590;34;20159;-70
2021/12/03 20:03:13;;;;;;;6.57;5.97;;;;;;;;;;4123514;34;20135;-67
2021/12/03 20:05:40;;;;;;;7.12;6.43;;;;;;;;;;4100205;34;20112;-73
2021/12/03 20:08:08;;;;;;;7.75;5.95;;;;;;;;;;4118224;34;20146;-70
2021/12/03 20:10:39;;;;;;;9.05;6.95;;;;;;;;;;4111095;34;20538;-69
2021/12/03 20:13:07;;;;;;;7.68;5.82;;;;;;;;;;4111146;34;20220;-69
2021/12/03 20:15:55;;;;;;;7.12;6.43;;;;;;;;;;4123476;34;20110;-71
2021/12/03 20:19:07;;;;;;;8.02;6.15;;;;;;;;;;4123438;34;20092;-70
2021/12/03 20:21:12;;;;;;;8.43;6.32;;;;;;;;;;4118257;34;20216;-70
2021/12/03 20:29:02;;;;;;;9.38;6.30;;;;;;;;;;4118006;34;20144;-70
2021/12/03 20:31:33;;;;;;;8.25;6.75;;;;;;;;;;4111099;34;20186;-70
2021/12/03 20:34:09;;;;;;;10.35;6.25;;;;;;;;;;4117910;34;20116;-68
2021/12/03 20:39:15;;;;;;;8.37;6.87;;;;;;;;;;4117779;34;20124;-70
2021/12/03 20:41:48;;;;;;;8.15;6.95;;;;;;;;;;4111354;34;20698;-69
2021/12/03 20:57:11;;;;;;;9.43;7.15;;;;;;;;;;4123317;34;20119;-70
2021/12/03 21:10:52;;;;;;;9.60;6.03;;;;;;;;;;4123128;34;20131;-68
2021/12/03 21:13:30;;;;;;;9.00;6.60;;;;;;;;;;4121844;34;20527;-69
2021/12/03 21:18:35;;;;;;;9.77;5.37;;;;;;;;;;4105385;34;20124;-68
2021/12/03 21:21:08;;;;;;;9.05;6.28;;;;;;;;;;4111784;34;20215;-68
2021/12/03 21:23:38;;;;;;;8.20;5.53;;;;;;;;;;4105812;34;20520;-68
2021/12/03 21:26:05;;;;;;;7.03;6.20;;;;;;;;;;4111103;34;20107;-71
2021/12/03 21:28:41;;;;;;;7.72;6.12;;;;;;;;;;4110444;34;20116;-69
2021/12/03 21:39:56;;;;;;;7.22;5.10;;;;;;;;;;4122872;34;20419;-71
2021/12/03 21:42:23;;;;;;;5.87;4.43;;;;;;;;;;4122886;34;20120;-71
2021/12/03 21:44:49;;;;;;;7.28;4.30;;;;;;;;;;4122899;34;20135;-72
2021/12/03 21:47:15;;;;;;;5.35;4.65;;;;;;;;;;4099586;34;20092;-71
2021/12/03 21:49:41;;;;;;;8.13;4.70;;;;;;;;;;4121582;34;20484;-72
2021/12/03 21:52:08;;;;;;;7.05;5.07;;;;;;;;;;4121470;34;20186;-68
2021/12/03 21:54:34;;;;;;;4.87;3.95;;;;;;;;;;4122684;34;20096;-67
2021/12/03 21:57:02;;;;;;;6.32;4.15;;;;;;;;;;4120443;34;20096;-68
2021/12/03 21:59:28;;;;;;;6.03;3.80;;;;;;;;;;4122525;34;20096;-67
2021/12/03 22:01:56;;;;;;;4.80;3.65;;;;;;;;;;4121337;34;20584;-67
2021/12/03 22:04:22;;;;;;;5.57;3.60;;;;;;;;;;4122630;34;20115;-69
2021/12/03 22:06:49;;;;;;;6.55;3.83;;;;;;;;;;4122661;34;20091;-68
2021/12/03 22:09:15;;;;;;;4.47;3.50;;;;;;;;;;4122726;34;20119;-69
2021/12/03 22:11:43;;;;;;;6.57;3.80;;;;;;;;;;4121322;34;20620;-68
2021/12/03 22:14:09;;;;;;;8.00;3.87;;;;;;;;;;4122475;34;20529;-69
2021/12/03 22:16:35;;;;;;;5.03;3.60;;;;;;;;;;4121044;34;20548;-69
2021/12/03 22:19:01;;;;;;;4.45;3.62;;;;;;;;;;4122439;34;20100;-68
2021/12/03 22:21:27;;;;;;;6.07;4.07;;;;;;;;;;4110114;34;20526;-68
2021/12/03 22:23:54;;;;;;;7.32;3.72;;;;;;;;;;4122257;34;20103;-68
2021/12/03 22:26:20;;;;;;;4.50;3.20;;;;;;;;;;4122435;34;20111;-69
2021/12/03 22:28:47;;;;;;;5.07;3.65;;;;;;;;;;4121233;34;20122;-68
2021/12/03 22:31:13;;;;;;;6.78;3.30;;;;;;;;;;4122583;34;20123;-68
2021/12/03 22:33:42;;;;;;;5.22;3.10;;;;;;;;;;4121275;34;20449;-68
2021/12/03 22:36:08;;;;;;;4.97;3.20;;;;;;;;;;4122503;34;20112;-68
2021/12/03 22:38:35;;;;;;;2.90;2.60;;;;;;;;;;4122109;34;20128;-68
2021/12/03 22:41:02;;;;;;;4.75;3.12;;;;;;;;;;4122303;34;20197;-68
2021/12/03 22:43:32;;;;;;;5.82;3.25;;;;;;;;;;4121215;34;20114;-68
2021/12/03 22:53:38;;;;;;;3.58;2.67;;;;;;;;;;4110305;34;20115;-69
2021/12/03 22:56:05;;;;;;;4.43;2.92;;;;;;;;;;4122077;34;20104;-69
2021/12/03 22:58:31;;;;;;;4.22;3.00;;;;;;;;;;4109646;34;20131;-69
2021/12/03 23:01:03;;;;;;;4.25;2.50;;;;;;;;;;4120648;34;20108;-69
2021/12/03 23:03:30;;;;;;;4.70;3.00;;;;;;;;;;4109503;34;20465;-67
2021/12/03 23:05:57;;;;;;;8.18;2.80;;;;;;;;;;4109567;34;20207;-67
2021/12/03 23:08:23;;;;;;;3.67;2.97;;;;;;;;;;4121961;34;20119;-67
2021/12/03 23:10:51;;;;;;;3.87;2.80;;;;;;;;;;4123458;34;20115;-68
2021/12/03 23:13:17;;;;;;;5.35;2.92;;;;;;;;;;4124138;34;20103;-67
2021/12/03 23:15:43;;;;;;;4.97;3.20;;;;;;;;;;4123933;34;20186;-67
2021/12/03 23:18:11;;;;;;;4.22;2.90;;;;;;;;;;4124016;34;20127;-67
2021/12/03 23:20:39;;;;;;;3.55;2.40;;;;;;;;;;4124059;34;20133;-67
2021/12/03 23:23:06;;;;;;;3.12;2.65;;;;;;;;;;4111444;34;20237;-67
2021/12/03 23:25:33;;;;;;;5.53;2.45;;;;;;;;;;4122831;34;20148;-67
2021/12/03 23:28:01;;;;;;;3.35;2.75;;;;;;;;;;4118500;34;20131;-67
2021/12/03 23:30:27;;;;;;;2.83;2.42;;;;;;;;;;4123941;34;20132;-67
2021/12/03 23:32:55;;;;;;;3.97;2.80;;;;;;;;;;4123716;34;20130;-67
2021/12/03 23:35:21;;;;;;;6.82;3.08;;;;;;;;;;4111464;34;20112;-67
2021/12/03 23:37:47;;;;;;;3.60;2.55;;;;;;;;;;4123917;34;20115;-67